Towne Oaks, Illinois
Current Conditions -  °F | °C
As of 1:54 PM on Friday 19 Dec 2014 (Local Time) from KPIA Reporting Station
Clear Clear  
Wind Chill: 35°   Ceiling: Unl
Heat Index: 35°   Visibility: 10mi
Dew Point: 20°   Wind: 0mph
Humidity: 54%   Direction: NA
Pressure: 30.28"   Gusts: NA
Location:  40.5996°N, 89.5548°W
Report Text: KPIA 191954Z 00000KT 10SM CLR 02/M07 A3028 RMK AO2 SLP261 T00171067
Loading
Personal Weather Stations






























Interactive Weather Map New forecast layout! Learn more

10-Day Weather Forecast

Advertisements
Track Severe Weather on mobile